sensor_id;sensor_type;location;lat;lon;timestamp;temperature;humidity
71436;SHT31;59251;51.326;12.370;2023-04-01T00:00:24;9.22;98.26
71436;SHT31;59251;51.326;12.370;2023-04-01T00:02:49;9.24;98.33
71436;SHT31;59251;51.326;12.370;2023-04-01T00:05:15;9.24;98.33
71436;SHT31;59251;51.326;12.370;2023-04-01T00:07:42;9.19;98.19
71436;SHT31;59251;51.326;12.370;2023-04-01T00:10:09;9.25;98.20
71436;SHT31;59251;51.326;12.370;2023-04-01T00:12:36;9.25;98.60
71436;SHT31;59251;51.326;12.370;2023-04-01T00:15:03;9.25;98.69
71436;SHT31;59251;51.326;12.370;2023-04-01T00:17:28;9.22;98.48
71436;SHT31;59251;51.326;12.370;2023-04-01T00:19:57;9.31;98.13
71436;SHT31;59251;51.326;12.370;2023-04-01T00:22:24;9.26;98.41
71436;SHT31;59251;51.326;12.370;2023-04-01T00:24:50;9.28;98.35
71436;SHT31;59251;51.326;12.370;2023-04-01T00:27:15;9.21;98.68
71436;SHT31;59251;51.326;12.370;2023-04-01T00:29:45;9.22;98.85
71436;SHT31;59251;51.326;12.370;2023-04-01T00:32:11;9.17;98.55
71436;SHT31;59251;51.326;12.370;2023-04-01T00:34:37;9.19;98.89
71436;SHT31;59251;51.326;12.370;2023-04-01T00:37:03;9.15;98.97
71436;SHT31;59251;51.326;12.370;2023-04-01T00:39:30;9.18;98.92
71436;SHT31;59251;51.326;12.370;2023-04-01T00:41:56;9.10;99.12
71436;SHT31;59251;51.326;12.370;2023-04-01T00:44:32;9.21;98.98
71436;SHT31;59251;51.326;12.370;2023-04-01T00:46:59;9.11;98.88
71436;SHT31;59251;51.326;12.370;2023-04-01T00:49:29;9.18;99.03
71436;SHT31;59251;51.326;12.370;2023-04-01T00:51:57;9.07;99.31
71436;SHT31;59251;51.326;12.370;2023-04-01T00:54:25;9.21;99.04
71436;SHT31;59251;51.326;12.370;2023-04-01T00:59:27;9.07;99.37
71436;SHT31;59251;51.326;12.370;2023-04-01T01:01:53;9.18;98.79
71436;SHT31;59251;51.326;12.370;2023-04-01T01:04:29;9.15;98.72
71436;SHT31;59251;51.326;12.370;2023-04-01T01:12:49;9.18;98.31
71436;SHT31;59251;51.326;12.370;2023-04-01T01:18:05;9.15;98.83
71436;SHT31;59251;51.326;12.370;2023-04-01T01:29:00;9.31;98.10
71436;SHT31;59251;51.326;12.370;2023-04-01T01:31:32;9.24;97.72
71436;SHT31;59251;51.326;12.370;2023-04-01T01:36:57;9.19;97.76
71436;SHT31;59251;51.326;12.370;2023-04-01T01:39:27;9.32;97.58
71436;SHT31;59251;51.326;12.370;2023-04-01T01:41:57;9.34;97.08
71436;SHT31;59251;51.326;12.370;2023-04-01T01:44:24;9.31;97.13
71436;SHT31;59251;51.326;12.370;2023-04-01T01:46:50;9.32;97.13
71436;SHT31;59251;51.326;12.370;2023-04-01T01:49:18;9.34;96.96
71436;SHT31;59251;51.326;12.370;2023-04-01T01:51:44;9.28;97.27
71436;SHT31;59251;51.326;12.370;2023-04-01T01:54:14;9.31;97.02
71436;SHT31;59251;51.326;12.370;2023-04-01T01:56:41;9.32;96.99
71436;SHT31;59251;51.326;12.370;2023-04-01T01:59:10;9.40;96.54
71436;SHT31;59251;51.326;12.370;2023-04-01T02:01:41;9.34;96.75
71436;SHT31;59251;51.326;12.370;2023-04-01T02:04:08;9.38;96.22
71436;SHT31;59251;51.326;12.370;2023-04-01T02:06:38;9.39;96.30
71436;SHT31;59251;51.326;12.370;2023-04-01T02:09:07;9.42;96.22
71436;SHT31;59251;51.326;12.370;2023-04-01T02:11:43;9.38;96.10
71436;SHT31;59251;51.326;12.370;2023-04-01T02:14:14;9.38;96.16
71436;SHT31;59251;51.326;12.370;2023-04-01T02:16:50;9.34;96.76
71436;SHT31;59251;51.326;12.370;2023-04-01T02:19:17;9.45;96.08
71436;SHT31;59251;51.326;12.370;2023-04-01T02:21:50;9.42;95.73
71436;SHT31;59251;51.326;12.370;2023-04-01T02:24:17;9.49;95.69
71436;SHT31;59251;51.326;12.370;2023-04-01T02:26:44;9.38;96.08
71436;SHT31;59251;51.326;12.370;2023-04-01T02:29:11;9.52;95.46
71436;SHT31;59251;51.326;12.370;2023-04-01T02:31:37;9.47;95.99
71436;SHT31;59251;51.326;12.370;2023-04-01T02:34:03;9.45;95.42
71436;SHT31;59251;51.326;12.370;2023-04-01T02:36:29;9.35;95.81
71436;SHT31;59251;51.326;12.370;2023-04-01T02:38:55;9.46;95.29
71436;SHT31;59251;51.326;12.370;2023-04-01T02:41:24;9.49;95.04
71436;SHT31;59251;51.326;12.370;2023-04-01T02:43:49;9.53;95.29
71436;SHT31;59251;51.326;12.370;2023-04-01T02:46:16;9.49;95.18
71436;SHT31;59251;51.326;12.370;2023-04-01T02:48:41;9.59;94.81
71436;SHT31;59251;51.326;12.370;2023-04-01T02:51:08;9.57;94.94
71436;SHT31;59251;51.326;12.370;2023-04-01T02:53:33;9.60;94.61
71436;SHT31;59251;51.326;12.370;2023-04-01T02:55:58;9.52;94.83
71436;SHT31;59251;51.326;12.370;2023-04-01T02:58:24;9.63;94.37
71436;SHT31;59251;51.326;12.370;2023-04-01T03:00:49;9.66;93.58
71436;SHT31;59251;51.326;12.370;2023-04-01T03:03:15;9.52;94.22
71436;SHT31;59251;51.326;12.370;2023-04-01T03:05:40;9.52;93.85
71436;SHT31;59251;51.326;12.370;2023-04-01T03:08:05;9.59;93.54
71436;SHT31;59251;51.326;12.370;2023-04-01T03:10:31;9.69;93.46
71436;SHT31;59251;51.326;12.370;2023-04-01T03:12:56;9.56;93.33
71436;SHT31;59251;51.326;12.370;2023-04-01T03:15:22;9.52;93.93
71436;SHT31;59251;51.326;12.370;2023-04-01T03:17:47;9.56;93.50
71436;SHT31;59251;51.326;12.370;2023-04-01T03:20:13;9.50;93.64
71436;SHT31;59251;51.326;12.370;2023-04-01T03:22:38;9.42;94.16
71436;SHT31;59251;51.326;12.370;2023-04-01T03:25:05;9.45;94.50
71436;SHT31;59251;51.326;12.370;2023-04-01T03:27:30;9.31;94.75
71436;SHT31;59251;51.326;12.370;2023-04-01T03:29:56;9.52;94.50
71436;SHT31;59251;51.326;12.370;2023-04-01T03:32:21;9.40;94.52
71436;SHT31;59251;51.326;12.370;2023-04-01T03:34:46;9.46;94.70
71436;SHT31;59251;51.326;12.370;2023-04-01T03:37:12;9.49;94.56
71436;SHT31;59251;51.326;12.370;2023-04-01T03:39:37;9.45;94.99
71436;SHT31;59251;51.326;12.370;2023-04-01T03:42:03;9.49;94.20
71436;SHT31;59251;51.326;12.370;2023-04-01T03:44:33;9.38;94.69
71436;SHT31;59251;51.326;12.370;2023-04-01T03:46:59;9.35;95.01
71436;SHT31;59251;51.326;12.370;2023-04-01T03:49:24;9.32;95.27
71436;SHT31;59251;51.326;12.370;2023-04-01T03:51:49;9.38;94.82
71436;SHT31;59251;51.326;12.370;2023-04-01T03:54:15;9.28;95.39
71436;SHT31;59251;51.326;12.370;2023-04-01T03:56:40;9.31;95.52
71436;SHT31;59251;51.326;12.370;2023-04-01T03:59:07;9.26;95.49
71436;SHT31;59251;51.326;12.370;2023-04-01T04:01:32;9.26;95.20
71436;SHT31;59251;51.326;12.370;2023-04-01T04:03:58;9.31;95.19
71436;SHT31;59251;51.326;12.370;2023-04-01T04:06:24;9.31;95.20
71436;SHT31;59251;51.326;12.370;2023-04-01T04:08:50;9.26;95.51
71436;SHT31;59251;51.326;12.370;2023-04-01T04:11:16;9.35;95.46
71436;SHT31;59251;51.326;12.370;2023-04-01T04:13:42;9.24;95.63
71436;SHT31;59251;51.326;12.370;2023-04-01T04:16:09;9.26;95.68
71436;SHT31;59251;51.326;12.370;2023-04-01T04:18:35;9.29;95.66
71436;SHT31;59251;51.326;12.370;2023-04-01T04:21:01;9.28;95.64
71436;SHT31;59251;51.326;12.370;2023-04-01T04:23:26;9.18;96.29
71436;SHT31;59251;51.326;12.370;2023-04-01T04:25:58;9.18;96.46
71436;SHT31;59251;51.326;12.370;2023-04-01T04:28:24;9.19;96.20
71436;SHT31;59251;51.326;12.370;2023-04-01T04:30:50;9.10;96.82
71436;SHT31;59251;51.326;12.370;2023-04-01T04:33:16;9.05;97.06
71436;SHT31;59251;51.326;12.370;2023-04-01T04:35:41;9.14;96.92
71436;SHT31;59251;51.326;12.370;2023-04-01T04:38:06;9.07;97.15
71436;SHT31;59251;51.326;12.370;2023-04-01T04:40:32;9.04;97.26
71436;SHT31;59251;51.326;12.370;2023-04-01T04:42:57;8.97;97.26
71436;SHT31;59251;51.326;12.370;2023-04-01T04:45:22;9.03;97.36
71436;SHT31;59251;51.326;12.370;2023-04-01T04:47:48;8.98;97.28
71436;SHT31;59251;51.326;12.370;2023-04-01T04:50:13;8.94;98.06
71436;SHT31;59251;51.326;12.370;2023-04-01T04:52:38;9.01;97.41
71436;SHT31;59251;51.326;12.370;2023-04-01T04:55:04;9.03;97.65
71436;SHT31;59251;51.326;12.370;2023-04-01T04:57:30;9.03;97.43
71436;SHT31;59251;51.326;12.370;2023-04-01T04:59:55;9.12;97.32
71436;SHT31;59251;51.326;12.370;2023-04-01T05:02:21;9.01;97.48
71436;SHT31;59251;51.326;12.370;2023-04-01T05:04:46;9.05;97.81
71436;SHT31;59251;51.326;12.370;2023-04-01T05:07:11;8.94;97.88
71436;SHT31;59251;51.326;12.370;2023-04-01T05:09:37;9.00;97.65
71436;SHT31;59251;51.326;12.370;2023-04-01T05:12:02;8.98;97.66
71436;SHT31;59251;51.326;12.370;2023-04-01T05:14:28;9.03;97.55
71436;SHT31;59251;51.326;12.370;2023-04-01T05:16:53;9.11;97.08
71436;SHT31;59251;51.326;12.370;2023-04-01T05:19:19;9.07;97.31
71436;SHT31;59251;51.326;12.370;2023-04-01T05:21:45;9.08;97.32
71436;SHT31;59251;51.326;12.370;2023-04-01T05:24:10;9.17;96.71
71436;SHT31;59251;51.326;12.370;2023-04-01T05:26:35;9.26;96.55
71436;SHT31;59251;51.326;12.370;2023-04-01T05:29:02;9.28;96.34
71436;SHT31;59251;51.326;12.370;2023-04-01T05:31:28;9.28;96.62
71436;SHT31;59251;51.326;12.370;2023-04-01T05:33:54;9.36;96.37
71436;SHT31;59251;51.326;12.370;2023-04-01T05:36:20;9.32;96.21
71436;SHT31;59251;51.326;12.370;2023-04-01T05:38:45;9.32;96.10
71436;SHT31;59251;51.326;12.370;2023-04-01T05:41:11;9.43;96.12
71436;SHT31;59251;51.326;12.370;2023-04-01T05:43:38;9.43;96.25
71436;SHT31;59251;51.326;12.370;2023-04-01T05:46:04;9.39;96.24
71436;SHT31;59251;51.326;12.370;2023-04-01T05:48:29;9.50;95.55
71436;SHT31;59251;51.326;12.370;2023-04-01T05:50:55;9.42;95.48
71436;SHT31;59251;51.326;12.370;2023-04-01T05:53:20;9.47;95.78
71436;SHT31;59251;51.326;12.370;2023-04-01T05:55:46;9.39;96.49
71436;SHT31;59251;51.326;12.370;2023-04-01T05:58:11;9.42;96.40
71436;SHT31;59251;51.326;12.370;2023-04-01T06:00:36;9.43;96.28
71436;SHT31;59251;51.326;12.370;2023-04-01T06:03:02;9.47;95.97
71436;SHT31;59251;51.326;12.370;2023-04-01T06:05:29;9.57;95.15
71436;SHT31;59251;51.326;12.370;2023-04-01T06:07:58;9.55;95.78
71436;SHT31;59251;51.326;12.370;2023-04-01T06:10:44;9.49;95.61
71436;SHT31;59251;51.326;12.370;2023-04-01T06:13:29;9.59;95.83
71436;SHT31;59251;51.326;12.370;2023-04-01T06:16:23;9.90;94.64
71436;SHT31;59251;51.326;12.370;2023-04-01T06:19:10;9.79;94.87
71436;SHT31;59251;51.326;12.370;2023-04-01T06:24:20;9.87;94.08
71436;SHT31;59251;51.326;12.370;2023-04-01T06:29:44;10.03;94.35
71436;SHT31;59251;51.326;12.370;2023-04-01T06:41:00;10.03;93.26
71436;SHT31;59251;51.326;12.370;2023-04-01T06:46:09;10.01;94.21
71436;SHT31;59251;51.326;12.370;2023-04-01T06:49:02;10.14;93.47
71436;SHT31;59251;51.326;12.370;2023-04-01T06:51:41;10.14;94.00
71436;SHT31;59251;51.326;12.370;2023-04-01T06:54:18;10.35;93.71
71436;SHT31;59251;51.326;12.370;2023-04-01T06:56:45;10.30;93.37
71436;SHT31;59251;51.326;12.370;2023-04-01T06:59:16;10.45;92.94
71436;SHT31;59251;51.326;12.370;2023-04-01T07:01:50;10.31;93.15
71436;SHT31;59251;51.326;12.370;2023-04-01T07:06:56;10.62;92.48
71436;SHT31;59251;51.326;12.370;2023-04-01T07:09:26;10.68;92.31
71436;SHT31;59251;51.326;12.370;2023-04-01T07:11:56;10.58;91.65
71436;SHT31;59251;51.326;12.370;2023-04-01T07:14:39;10.68;91.67
71436;SHT31;59251;51.326;12.370;2023-04-01T07:17:16;10.83;90.92
71436;SHT31;59251;51.326;12.370;2023-04-01T07:20:03;11.24;89.03
71436;SHT31;59251;51.326;12.370;2023-04-01T07:22:51;11.24;89.65
71436;SHT31;59251;51.326;12.370;2023-04-01T07:25:21;10.90;90.37
71436;SHT31;59251;51.326;12.370;2023-04-01T07:27:47;10.72;90.71
71436;SHT31;59251;51.326;12.370;2023-04-01T07:30:19;10.97;89.92
71436;SHT31;59251;51.326;12.370;2023-04-01T07:32:51;11.10;90.11
71436;SHT31;59251;51.326;12.370;2023-04-01T07:35:30;11.14;90.20
71436;SHT31;59251;51.326;12.370;2023-04-01T07:40:39;11.58;88.05
71436;SHT31;59251;51.326;12.370;2023-04-01T07:45:55;11.39;87.97
71436;SHT31;59251;51.326;12.370;2023-04-01T07:48:33;11.79;86.51
71436;SHT31;59251;51.326;12.370;2023-04-01T07:51:14;11.27;87.86
71436;SHT31;59251;51.326;12.370;2023-04-01T07:54:42;11.47;87.70
71436;SHT31;59251;51.326;12.370;2023-04-01T07:59:17;11.85;85.99
71436;SHT31;59251;51.326;12.370;2023-04-01T08:07:25;11.76;85.32
71436;SHT31;59251;51.326;12.370;2023-04-01T08:21:01;11.76;84.10
71436;SHT31;59251;51.326;12.370;2023-04-01T08:23:33;11.92;82.75
71436;SHT31;59251;51.326;12.370;2023-04-01T08:26:02;11.76;83.89
71436;SHT31;59251;51.326;12.370;2023-04-01T08:31:19;12.09;83.19
71436;SHT31;59251;51.326;12.370;2023-04-01T08:33:49;12.29;83.08
71436;SHT31;59251;51.326;12.370;2023-04-01T08:36:24;12.36;82.88
71436;SHT31;59251;51.326;12.370;2023-04-01T08:39:05;12.33;83.34
71436;SHT31;59251;51.326;12.370;2023-04-01T08:52:36;12.58;82.33
71436;SHT31;59251;51.326;12.370;2023-04-01T08:55:19;12.34;82.81
71436;SHT31;59251;51.326;12.370;2023-04-01T08:58:00;12.58;83.07
71436;SHT31;59251;51.326;12.370;2023-04-01T09:00:41;12.65;81.59
71436;SHT31;59251;51.326;12.370;2023-04-01T09:03:37;12.61;82.65
71436;SHT31;59251;51.326;12.370;2023-04-01T09:06:29;12.93;81.95
71436;SHT31;59251;51.326;12.370;2023-04-01T09:12:17;12.84;82.06
71436;SHT31;59251;51.326;12.370;2023-04-01T09:25:40;12.84;82.21
71436;SHT31;59251;51.326;12.370;2023-04-01T09:28:19;12.44;83.47
71436;SHT31;59251;51.326;12.370;2023-04-01T09:33:49;12.47;82.69
71436;SHT31;59251;51.326;12.370;2023-04-01T09:57:19;12.80;81.38
71436;SHT31;59251;51.326;12.370;2023-04-01T09:59:50;12.40;82.34
71436;SHT31;59251;51.326;12.370;2023-04-01T10:13:23;12.19;84.51
71436;SHT31;59251;51.326;12.370;2023-04-01T10:16:03;12.65;82.86
71436;SHT31;59251;51.326;12.370;2023-04-01T10:19:34;12.24;84.13
71436;SHT31;59251;51.326;12.370;2023-04-01T10:44:17;12.84;81.07
71436;SHT31;59251;51.326;12.370;2023-04-01T10:55:26;13.24;77.08
71436;SHT31;59251;51.326;12.370;2023-04-01T11:03:28;13.63;74.17
71436;SHT31;59251;51.326;12.370;2023-04-01T11:12:00;13.46;75.70
71436;SHT31;59251;51.326;12.370;2023-04-01T11:18:17;13.87;73.92
71436;SHT31;59251;51.326;12.370;2023-04-01T11:24:12;13.87;73.98
71436;SHT31;59251;51.326;12.370;2023-04-01T11:26:52;14.05;73.84
71436;SHT31;59251;51.326;12.370;2023-04-01T11:38:04;14.16;74.39
71436;SHT31;59251;51.326;12.370;2023-04-01T11:43:39;14.29;73.72
71436;SHT31;59251;51.326;12.370;2023-04-01T11:46:11;14.16;73.36
71436;SHT31;59251;51.326;12.370;2023-04-01T11:52:12;14.25;73.86
71436;SHT31;59251;51.326;12.370;2023-04-01T11:55:02;13.84;75.32
71436;SHT31;59251;51.326;12.370;2023-04-01T11:58:08;13.37;77.87
71436;SHT31;59251;51.326;12.370;2023-04-01T12:00:48;13.01;81.31
71436;SHT31;59251;51.326;12.370;2023-04-01T12:16:42;12.84;81.77
71436;SHT31;59251;51.326;12.370;2023-04-01T12:21:40;12.45;82.75
71436;SHT31;59251;51.326;12.370;2023-04-01T12:29:59;12.55;81.77
71436;SHT31;59251;51.326;12.370;2023-04-01T12:32:40;12.43;82.46
71436;SHT31;59251;51.326;12.370;2023-04-01T12:38:36;12.67;81.12
71436;SHT31;59251;51.326;12.370;2023-04-01T12:41:09;12.65;81.73
71436;SHT31;59251;51.326;12.370;2023-04-01T12:52:15;13.01;79.67
71436;SHT31;59251;51.326;12.370;2023-04-01T13:03:22;12.98;78.24
71436;SHT31;59251;51.326;12.370;2023-04-01T13:06:25;13.01;78.85
71436;SHT31;59251;51.326;12.370;2023-04-01T13:09:02;12.96;79.11
71436;SHT31;59251;51.326;12.370;2023-04-01T13:17:31;12.92;80.26
71436;SHT31;59251;51.326;12.370;2023-04-01T13:25:44;13.20;80.11
71436;SHT31;59251;51.326;12.370;2023-04-01T13:28:23;12.88;82.07
71436;SHT31;59251;51.326;12.370;2023-04-01T13:31:18;12.84;82.13
71436;SHT31;59251;51.326;12.370;2023-04-01T13:36:36;12.47;83.56
71436;SHT31;59251;51.326;12.370;2023-04-01T13:44:48;12.41;84.53
71436;SHT31;59251;51.326;12.370;2023-04-01T13:58:55;12.12;87.13
71436;SHT31;59251;51.326;12.370;2023-04-01T14:01:35;11.97;87.46
71436;SHT31;59251;51.326;12.370;2023-04-01T14:12:19;11.85;87.47
71436;SHT31;59251;51.326;12.370;2023-04-01T14:14:56;11.71;88.53
71436;SHT31;59251;51.326;12.370;2023-04-01T14:28:40;11.62;90.90
71436;SHT31;59251;51.326;12.370;2023-04-01T14:34:05;11.61;90.95
71436;SHT31;59251;51.326;12.370;2023-04-01T14:45:24;11.87;88.38
71436;SHT31;59251;51.326;12.370;2023-04-01T14:48:15;11.87;87.68
71436;SHT31;59251;51.326;12.370;2023-04-01T14:50:54;11.64;89.72
71436;SHT31;59251;51.326;12.370;2023-04-01T14:53:29;11.68;89.77
71436;SHT31;59251;51.326;12.370;2023-04-01T14:55:58;11.52;86.87
71436;SHT31;59251;51.326;12.370;2023-04-01T14:58:39;11.48;86.68
71436;SHT31;59251;51.326;12.370;2023-04-01T15:01:42;11.41;87.49
71436;SHT31;59251;51.326;12.370;2023-04-01T15:04:35;11.65;88.95
71436;SHT31;59251;51.326;12.370;2023-04-01T15:15:16;11.79;88.65
71436;SHT31;59251;51.326;12.370;2023-04-01T15:18:08;11.75;88.20
71436;SHT31;59251;51.326;12.370;2023-04-01T15:20:42;11.95;89.84
71436;SHT31;59251;51.326;12.370;2023-04-01T15:23:21;11.83;89.61
71436;SHT31;59251;51.326;12.370;2023-04-01T15:26:13;12.03;89.63
71436;SHT31;59251;51.326;12.370;2023-04-01T15:28:56;11.78;90.07
71436;SHT31;59251;51.326;12.370;2023-04-01T15:31:50;11.79;90.35
71436;SHT31;59251;51.326;12.370;2023-04-01T15:34:26;11.90;90.51
71436;SHT31;59251;51.326;12.370;2023-04-01T15:37:37;11.64;90.87
71436;SHT31;59251;51.326;12.370;2023-04-01T15:40:15;11.69;91.04
71436;SHT31;59251;51.326;12.370;2023-04-01T15:43:09;11.57;92.42
71436;SHT31;59251;51.326;12.370;2023-04-01T15:45:46;11.48;91.90
71436;SHT31;59251;51.326;12.370;2023-04-01T15:57:20;11.23;92.06
71436;SHT31;59251;51.326;12.370;2023-04-01T16:02:52;11.13;92.33
71436;SHT31;59251;51.326;12.370;2023-04-01T16:11:28;11.24;91.97
71436;SHT31;59251;51.326;12.370;2023-04-01T16:14:14;11.16;92.83
71436;SHT31;59251;51.326;12.370;2023-04-01T16:16:46;11.10;93.96
71436;SHT31;59251;51.326;12.370;2023-04-01T16:21:57;11.04;92.99
71436;SHT31;59251;51.326;12.370;2023-04-01T16:24:35;11.13;92.66
71436;SHT31;59251;51.326;12.370;2023-04-01T16:29:43;11.04;93.18
71436;SHT31;59251;51.326;12.370;2023-04-01T16:40:47;11.00;94.04
71436;SHT31;59251;51.326;12.370;2023-04-01T16:48:45;10.89;94.66
71436;SHT31;59251;51.326;12.370;2023-04-01T16:51:17;10.90;94.50
71436;SHT31;59251;51.326;12.370;2023-04-01T16:54:02;10.95;94.36
71436;SHT31;59251;51.326;12.370;2023-04-01T16:56:38;10.99;93.75
71436;SHT31;59251;51.326;12.370;2023-04-01T17:02:13;10.96;93.93
71436;SHT31;59251;51.326;12.370;2023-04-01T17:05:06;10.90;93.75
71436;SHT31;59251;51.326;12.370;2023-04-01T17:07:43;10.82;93.83
71436;SHT31;59251;51.326;12.370;2023-04-01T17:10:25;10.90;94.11
71436;SHT31;59251;51.326;12.370;2023-04-01T17:18:29;10.53;94.63
71436;SHT31;59251;51.326;12.370;2023-04-01T17:21:02;10.53;94.78
71436;SHT31;59251;51.326;12.370;2023-04-01T17:26:26;10.56;95.59
71436;SHT31;59251;51.326;12.370;2023-04-01T17:31:57;10.42;95.98
71436;SHT31;59251;51.326;12.370;2023-04-01T17:42:47;10.41;96.99
71436;SHT31;59251;51.326;12.370;2023-04-01T17:45:24;10.35;95.71
71436;SHT31;59251;51.326;12.370;2023-04-01T17:50:42;10.37;96.60
71436;SHT31;59251;51.326;12.370;2023-04-01T17:55:59;10.38;96.77
71436;SHT31;59251;51.326;12.370;2023-04-01T17:58:38;10.41;97.02
71436;SHT31;59251;51.326;12.370;2023-04-01T18:04:37;10.46;96.46
71436;SHT31;59251;51.326;12.370;2023-04-01T18:24:13;10.13;97.76
71436;SHT31;59251;51.326;12.370;2023-04-01T18:26:43;10.11;97.11
71436;SHT31;59251;51.326;12.370;2023-04-01T18:35:29;9.97;96.98
71436;SHT31;59251;51.326;12.370;2023-04-01T18:38:13;9.98;97.32
71436;SHT31;59251;51.326;12.370;2023-04-01T18:40:47;10.05;96.67
71436;SHT31;59251;51.326;12.370;2023-04-01T18:43:30;9.97;96.45
71436;SHT31;59251;51.326;12.370;2023-04-01T18:52:10;9.91;96.23
71436;SHT31;59251;51.326;12.370;2023-04-01T18:54:45;9.84;96.57
71436;SHT31;59251;51.326;12.370;2023-04-01T18:57:16;9.82;96.00
71436;SHT31;59251;51.326;12.370;2023-04-01T18:59:45;9.82;95.17
71436;SHT31;59251;51.326;12.370;2023-04-01T19:02:33;9.77;95.64
71436;SHT31;59251;51.326;12.370;2023-04-01T19:12:55;9.80;95.88
71436;SHT31;59251;51.326;12.370;2023-04-01T19:21:01;9.90;98.09
71436;SHT31;59251;51.326;12.370;2023-04-01T19:26:15;9.87;98.72
71436;SHT31;59251;51.326;12.370;2023-04-01T19:28:59;9.76;99.08
71436;SHT31;59251;51.326;12.370;2023-04-01T19:31:37;9.76;99.58
71436;SHT31;59251;51.326;12.370;2023-04-01T19:36:50;9.59;99.83
71436;SHT31;59251;51.326;12.370;2023-04-01T19:52:47;9.10;99.99
71436;SHT31;59251;51.326;12.370;2023-04-01T19:58:49;9.24;99.99
71436;SHT31;59251;51.326;12.370;2023-04-01T20:00:58;9.05;99.99
71436;SHT31;59251;51.326;12.370;2023-04-01T20:06:28;9.03;99.99
71436;SHT31;59251;51.326;12.370;2023-04-01T20:25:25;8.57;99.99
71436;SHT31;59251;51.326;12.370;2023-04-01T20:36:30;8.39;99.99
71436;SHT31;59251;51.326;12.370;2023-04-01T20:41:49;8.25;99.99
71436;SHT31;59251;51.326;12.370;2023-04-01T20:50:02;8.30;99.99
71436;SHT31;59251;51.326;12.370;2023-04-01T20:52:40;8.09;99.99
71436;SHT31;59251;51.326;12.370;2023-04-01T21:03:10;7.95;99.99
71436;SHT31;59251;51.326;12.370;2023-04-01T21:11:28;7.73;99.95
71436;SHT31;59251;51.326;12.370;2023-04-01T21:39:12;7.39;99.99
71436;SHT31;59251;51.326;12.370;2023-04-01T21:57:52;6.83;99.99
71436;SHT31;59251;51.326;12.370;2023-04-01T22:00:32;6.65;99.99
71436;SHT31;59251;51.326;12.370;2023-04-01T22:05:59;6.38;99.99
71436;SHT31;59251;51.326;12.370;2023-04-01T22:16:53;6.25;99.99
71436;SHT31;59251;51.326;12.370;2023-04-01T22:27:35;6.25;99.99
71436;SHT31;59251;51.326;12.370;2023-04-01T22:30:24;6.16;99.99
71436;SHT31;59251;51.326;12.370;2023-04-01T22:33:24;6.05;99.99
71436;SHT31;59251;51.326;12.370;2023-04-01T22:39:04;5.74;99.99
71436;SHT31;59251;51.326;12.370;2023-04-01T22:44:15;5.87;99.99
71436;SHT31;59251;51.326;12.370;2023-04-01T22:49:21;5.78;99.99
71436;SHT31;59251;51.326;12.370;2023-04-01T22:54:42;5.77;99.99
71436;SHT31;59251;51.326;12.370;2023-04-01T22:57:14;5.72;99.99
71436;SHT31;59251;51.326;12.370;2023-04-01T22:59:57;5.71;99.99
71436;SHT31;59251;51.326;12.370;2023-04-01T23:02:25;5.79;99.99
71436;SHT31;59251;51.326;12.370;2023-04-01T23:04:56;5.62;99.99
71436;SHT31;59251;51.326;12.370;2023-04-01T23:10:41;5.67;99.99
71436;SHT31;59251;51.326;12.370;2023-04-01T23:13:14;5.67;99.99
71436;SHT31;59251;51.326;12.370;2023-04-01T23:15:41;5.61;99.99
71436;SHT31;59251;51.326;12.370;2023-04-01T23:20:56;5.54;99.99
71436;SHT31;59251;51.326;12.370;2023-04-01T23:23:39;5.54;99.99
71436;SHT31;59251;51.326;12.370;2023-04-01T23:26:33;5.44;99.99
71436;SHT31;59251;51.326;12.370;2023-04-01T23:29:00;5.41;99.99
71436;SHT31;59251;51.326;12.370;2023-04-01T23:31:40;5.44;99.99
71436;SHT31;59251;51.326;12.370;2023-04-01T23:36:43;5.44;99.99
71436;SHT31;59251;51.326;12.370;2023-04-01T23:42:00;5.34;99.99
71436;SHT31;59251;51.326;12.370;2023-04-01T23:44:27;5.36;99.99
71436;SHT31;59251;51.326;12.370;2023-04-01T23:46:54;5.31;99.99
71436;SHT31;59251;51.326;12.370;2023-04-01T23:49:34;5.26;99.99
71436;SHT31;59251;51.326;12.370;2023-04-01T23:57:17;5.16;99.99
71436;SHT31;59251;51.326;12.370;2023-04-01T23:59:43;5.20;99.99
